createdAt,value
2022-12-01T00:01:49.452Z,5.80
2022-12-01T00:04:19.001Z,5.80
2022-12-01T00:06:48.439Z,5.70
2022-12-01T00:09:36.016Z,5.70
2022-12-01T00:12:05.582Z,5.80
2022-12-01T00:14:35.075Z,5.70
2022-12-01T00:17:05.606Z,5.60
2022-12-01T00:19:35.115Z,5.60
2022-12-01T00:22:04.540Z,5.70
2022-12-01T00:24:34.086Z,5.70
2022-12-01T00:27:03.511Z,5.70
2022-12-01T00:29:32.958Z,5.80
2022-12-01T00:32:02.507Z,5.80
2022-12-01T00:34:32.237Z,5.80
2022-12-01T00:37:01.826Z,5.80
2022-12-01T00:39:31.367Z,5.80
2022-12-01T00:42:00.809Z,5.80
2022-12-01T00:44:30.235Z,5.80
2022-12-01T00:46:59.693Z,5.80
2022-12-01T00:49:29.187Z,5.80
2022-12-01T00:51:59.441Z,5.80
2022-12-01T00:54:30.538Z,5.80
2022-12-01T00:57:01.404Z,5.80
2022-12-01T00:59:30.949Z,5.80
2022-12-01T01:02:00.447Z,5.80
2022-12-01T01:04:34.899Z,5.80
2022-12-01T01:07:04.986Z,5.80
2022-12-01T01:09:34.502Z,5.70
2022-12-01T01:12:04.085Z,5.70
2022-12-01T01:14:33.660Z,5.80
2022-12-01T01:17:03.945Z,5.70
2022-12-01T01:19:33.412Z,5.70
2022-12-01T01:22:02.922Z,5.80
2022-12-01T01:24:32.379Z,5.80
2022-12-01T01:27:01.822Z,5.80
2022-12-01T01:29:31.254Z,5.80
2022-12-01T01:32:00.714Z,5.80
2022-12-01T01:34:30.216Z,5.70
2022-12-01T01:36:59.713Z,5.70
2022-12-01T01:39:29.312Z,5.70
2022-12-01T01:41:58.736Z,5.70
2022-12-01T01:44:46.172Z,5.80
2022-12-01T01:47:18.196Z,5.80
2022-12-01T01:49:50.259Z,5.50
2022-12-01T01:52:20.022Z,5.30
2022-12-01T01:54:52.327Z,5.30
2022-12-01T01:57:27.659Z,5.40
2022-12-01T02:00:00.312Z,5.40
2022-12-01T02:02:29.797Z,5.50
2022-12-01T02:05:02.509Z,5.60
2022-12-01T02:07:33.132Z,5.70
2022-12-01T02:10:02.682Z,5.60
2022-12-01T02:12:50.014Z,5.70
2022-12-01T02:15:31.407Z,5.70
2022-12-01T02:18:22.056Z,5.70
2022-12-01T02:20:59.660Z,5.70
2022-12-01T02:23:32.167Z,5.70
2022-12-01T02:26:30.352Z,5.70
2022-12-01T02:29:06.267Z,5.70
2022-12-01T02:31:41.578Z,5.70
2022-12-01T02:34:25.867Z,5.70
2022-12-01T02:37:01.090Z,5.70
2022-12-01T02:39:45.544Z,5.70
2022-12-01T02:42:31.927Z,5.70
2022-12-01T02:45:05.145Z,5.80
2022-12-01T02:47:36.801Z,5.80
2022-12-01T02:50:08.871Z,5.70
2022-12-01T02:52:40.458Z,5.70
2022-12-01T02:55:10.199Z,5.80
2022-12-01T02:57:39.922Z,5.80
2022-12-01T03:00:12.496Z,5.80
2022-12-01T03:02:47.281Z,5.80
2022-12-01T03:05:32.447Z,5.70
2022-12-01T03:08:28.641Z,5.70
2022-12-01T03:11:00.433Z,5.70
2022-12-01T03:13:39.035Z,5.50
2022-12-01T03:16:20.210Z,5.40
2022-12-01T03:18:55.543Z,5.30
2022-12-01T03:21:28.066Z,5.50
2022-12-01T03:25:45.385Z,5.70
2022-12-01T03:28:21.528Z,5.70
2022-12-01T03:30:51.166Z,5.70
2022-12-01T03:33:21.473Z,5.80
2022-12-01T03:35:53.962Z,5.70
2022-12-01T03:38:26.087Z,5.70
2022-12-01T03:40:58.654Z,5.70
2022-12-01T03:43:31.171Z,5.70
2022-12-01T03:46:21.770Z,5.70
2022-12-01T03:48:54.170Z,5.60
2022-12-01T03:51:32.953Z,5.70
2022-12-01T03:54:08.000Z,5.70
2022-12-01T03:56:43.446Z,5.70
2022-12-01T03:59:15.639Z,5.70
2022-12-01T04:01:46.927Z,5.70
2022-12-01T04:04:16.725Z,5.70
2022-12-01T04:06:51.294Z,5.60
2022-12-01T04:09:20.714Z,5.60
2022-12-01T04:12:08.327Z,5.70
2022-12-01T04:14:37.797Z,5.60
2022-12-01T04:17:07.235Z,5.70
2022-12-01T04:19:36.671Z,5.70
2022-12-01T04:22:06.134Z,5.70
2022-12-01T04:24:35.569Z,5.80
2022-12-01T04:27:05.071Z,5.80
2022-12-01T04:29:34.665Z,5.70
2022-12-01T04:32:04.159Z,5.80
2022-12-01T04:34:33.982Z,5.70
2022-12-01T04:37:03.870Z,5.70
2022-12-01T04:39:33.364Z,5.80
2022-12-01T04:42:03.577Z,5.70
2022-12-01T04:44:34.979Z,5.70
2022-12-01T04:47:07.212Z,5.80
2022-12-01T04:49:37.359Z,5.70
2022-12-01T04:52:07.505Z,5.70
2022-12-01T04:54:36.951Z,5.70
2022-12-01T04:57:05.563Z,5.60
2022-12-01T04:59:35.029Z,5.60
2022-12-01T05:02:04.736Z,5.60
2022-12-01T05:04:35.896Z,5.60
2022-12-01T05:07:05.496Z,5.50
2022-12-01T05:09:34.998Z,5.50
2022-12-01T05:12:04.509Z,5.50
2022-12-01T05:14:33.939Z,5.50
2022-12-01T05:17:02.591Z,5.50
2022-12-01T05:19:50.001Z,5.50
2022-12-01T05:22:36.470Z,5.50
2022-12-01T05:24:50.970Z,5.50
2022-12-01T05:27:20.484Z,5.50
2022-12-01T05:29:49.342Z,5.40
2022-12-01T05:32:19.202Z,5.40
2022-12-01T05:34:48.677Z,5.40
2022-12-01T05:37:18.185Z,5.40
2022-12-01T05:39:47.992Z,5.40
2022-12-01T05:42:17.919Z,5.40
2022-12-01T05:44:47.446Z,5.40
2022-12-01T05:47:16.945Z,5.40
2022-12-01T05:49:46.513Z,5.40
2022-12-01T05:52:16.327Z,5.30
2022-12-01T05:54:45.824Z,5.40
2022-12-01T05:57:15.255Z,5.40
2022-12-01T05:59:44.719Z,5.40
2022-12-01T06:02:14.257Z,5.40
2022-12-01T06:04:44.547Z,5.40
2022-12-01T06:07:13.987Z,5.30
2022-12-01T06:09:45.077Z,5.30
2022-12-01T06:12:14.687Z,5.30
2022-12-01T06:14:44.188Z,5.30
2022-12-01T06:17:13.719Z,5.30
2022-12-01T06:19:43.617Z,5.30
2022-12-01T06:22:13.052Z,5.30
2022-12-01T06:24:42.663Z,5.30
2022-12-01T06:27:12.096Z,5.20
2022-12-01T06:29:42.371Z,5.10
2022-12-01T06:32:12.068Z,5.10
2022-12-01T06:34:41.623Z,5.10
2022-12-01T06:37:12.786Z,5.20
2022-12-01T06:39:43.052Z,5.20
2022-12-01T06:42:12.679Z,5.10
2022-12-01T06:44:42.229Z,5.10
2022-12-01T06:47:11.706Z,5.20
2022-12-01T06:49:41.168Z,5.10
2022-12-01T06:52:11.732Z,5.20
2022-12-01T06:54:41.260Z,5.10
2022-12-01T06:57:11.103Z,5.20
2022-12-01T06:59:40.545Z,5.20
2022-12-01T07:02:13.146Z,5.20
2022-12-01T07:04:42.543Z,5.10
2022-12-01T07:07:12.713Z,5.10
2022-12-01T07:09:42.198Z,5.10
2022-12-01T07:12:11.633Z,5.00
2022-12-01T07:14:42.507Z,5.10
2022-12-01T07:17:11.933Z,5.10
2022-12-01T07:19:41.403Z,5.10
2022-12-01T07:22:10.870Z,5.00
2022-12-01T07:24:40.301Z,4.90
2022-12-01T07:27:08.947Z,5.00
2022-12-01T07:29:38.036Z,4.90
2022-12-01T07:32:06.663Z,4.90
2022-12-01T07:34:36.014Z,4.90
2022-12-01T07:37:05.534Z,4.80
2022-12-01T07:39:35.032Z,4.80
2022-12-01T07:42:05.046Z,4.80
2022-12-01T07:44:34.495Z,4.80
2022-12-01T07:47:03.957Z,4.70
2022-12-01T07:49:34.369Z,4.70
2022-12-01T07:52:03.871Z,4.70
2022-12-01T07:54:33.299Z,4.80
2022-12-01T07:57:02.772Z,4.80
2022-12-01T07:59:32.267Z,4.70
2022-12-01T08:02:01.826Z,4.80
2022-12-01T08:04:33.281Z,4.70
2022-12-01T08:07:02.760Z,4.80
2022-12-01T08:09:32.255Z,4.80
2022-12-01T08:12:01.767Z,4.90
2022-12-01T08:14:31.190Z,5.00
2022-12-01T08:17:00.652Z,4.90
2022-12-01T08:19:30.076Z,4.80
2022-12-01T08:21:59.562Z,4.80
2022-12-01T08:24:28.980Z,4.80
2022-12-01T08:26:58.547Z,4.80
2022-12-01T08:29:28.041Z,4.80
2022-12-01T08:31:59.735Z,4.80
2022-12-01T08:34:29.155Z,4.80
2022-12-01T08:36:58.644Z,4.90
2022-12-01T08:39:28.076Z,4.90
2022-12-01T08:41:57.602Z,5.00
2022-12-01T08:44:27.039Z,5.00
2022-12-01T08:46:56.662Z,5.00
2022-12-01T08:49:26.906Z,4.90
2022-12-01T08:51:56.336Z,5.10
2022-12-01T08:54:25.934Z,5.00
2022-12-01T08:56:55.436Z,4.90
2022-12-01T08:59:25.107Z,4.90
2022-12-01T09:01:54.589Z,5.00
2022-12-01T09:04:26.797Z,5.00
2022-12-01T09:06:58.145Z,4.90
2022-12-01T09:09:29.653Z,4.90
2022-12-01T09:11:59.210Z,5.00
2022-12-01T09:14:28.650Z,5.00
2022-12-01T09:16:58.734Z,5.00
2022-12-01T09:19:28.962Z,4.90
2022-12-01T09:21:58.607Z,4.90
2022-12-01T09:24:28.247Z,5.00
2022-12-01T09:26:59.828Z,5.00
2022-12-01T09:29:29.311Z,5.00
2022-12-01T09:32:00.373Z,4.90
2022-12-01T09:34:30.374Z,5.00
2022-12-01T09:36:59.932Z,5.00
2022-12-01T09:39:30.035Z,5.10
2022-12-01T09:42:07.641Z,5.10
2022-12-01T09:44:40.191Z,5.10
2022-12-01T09:47:21.446Z,5.20
2022-12-01T09:50:00.459Z,5.20
2022-12-01T09:52:32.816Z,5.20
2022-12-01T09:55:03.002Z,5.10
2022-12-01T09:57:35.424Z,5.10
2022-12-01T10:00:14.279Z,5.20
2022-12-01T10:02:46.770Z,5.30
2022-12-01T10:05:19.706Z,5.30
2022-12-01T10:07:55.153Z,5.40
2022-12-01T10:10:33.698Z,5.40
2022-12-01T10:13:03.802Z,5.40
2022-12-01T10:15:48.592Z,5.40
2022-12-01T10:18:42.043Z,5.40
2022-12-01T10:21:27.529Z,5.10
2022-12-01T10:24:03.007Z,5.20
2022-12-01T10:27:00.114Z,5.30
2022-12-01T10:29:49.456Z,5.50
2022-12-01T10:32:29.989Z,5.50
2022-12-01T10:34:59.955Z,5.60
2022-12-01T10:37:31.885Z,5.70
2022-12-01T10:40:01.491Z,5.70
2022-12-01T10:42:42.662Z,5.50
2022-12-01T10:45:15.435Z,5.70
2022-12-01T10:48:11.001Z,5.80
2022-12-01T10:50:41.189Z,5.90
2022-12-01T10:53:13.766Z,5.90
2022-12-01T10:55:47.973Z,6.00
2022-12-01T10:58:17.635Z,6.00
2022-12-01T11:01:05.627Z,6.00
2022-12-01T11:03:24.158Z,5.90
2022-12-01T11:05:59.664Z,5.90
2022-12-01T11:08:58.156Z,5.90
2022-12-01T11:11:30.675Z,6.00
2022-12-01T11:14:03.335Z,5.90
2022-12-01T11:16:47.180Z,6.00
2022-12-01T11:19:27.519Z,6.00
2022-12-01T11:22:01.916Z,6.10
2022-12-01T11:24:46.150Z,6.30
2022-12-01T11:27:18.600Z,6.50
2022-12-01T11:29:51.883Z,6.50
2022-12-01T11:32:27.559Z,6.60
2022-12-01T11:35:03.006Z,6.80
2022-12-01T11:37:42.029Z,6.80
2022-12-01T11:40:26.617Z,6.80
2022-12-01T11:42:59.475Z,6.70
2022-12-01T11:45:34.901Z,6.80
2022-12-01T11:48:16.830Z,6.80
2022-12-01T11:51:06.416Z,6.90
2022-12-01T11:53:42.002Z,6.80
2022-12-01T11:56:17.587Z,6.70
2022-12-01T11:58:49.303Z,6.80
2022-12-01T12:01:30.931Z,6.90
2022-12-01T12:04:09.235Z,7.10
2022-12-01T12:06:41.949Z,6.80
2022-12-01T12:09:31.604Z,6.80
2022-12-01T12:12:10.407Z,7.00
2022-12-01T12:14:42.911Z,7.10
2022-12-01T12:17:18.395Z,7.10
2022-12-01T12:20:17.500Z,7.10
2022-12-01T12:23:02.202Z,7.20
2022-12-01T12:25:37.476Z,7.10
2022-12-01T12:28:15.269Z,7.20
2022-12-01T12:30:50.344Z,7.00
2022-12-01T12:33:41.243Z,6.90
2022-12-01T12:36:35.057Z,7.20
2022-12-01T12:39:26.752Z,7.30
2022-12-01T12:41:58.119Z,7.30
2022-12-01T12:44:42.641Z,7.30
2022-12-01T12:47:20.622Z,7.40
2022-12-01T12:50:11.493Z,7.40
2022-12-01T12:52:46.857Z,7.40
2022-12-01T12:55:31.427Z,7.30
2022-12-01T12:58:11.380Z,7.40
2022-12-01T13:00:44.097Z,7.30
2022-12-01T13:03:19.495Z,7.30
2022-12-01T13:05:57.818Z,7.30
2022-12-01T13:08:30.478Z,7.30
2022-12-01T13:11:03.373Z,7.30
2022-12-01T13:13:38.678Z,7.30
2022-12-01T13:16:13.879Z,7.30
2022-12-01T13:18:59.630Z,7.20
2022-12-01T13:21:32.192Z,7.20
2022-12-01T13:24:03.517Z,7.20
2022-12-01T13:26:35.093Z,7.20
2022-12-01T13:29:07.623Z,7.20
2022-12-01T13:31:44.094Z,7.20
2022-12-01T13:34:19.238Z,7.20
2022-12-01T13:36:53.868Z,7.20
2022-12-01T13:39:28.897Z,7.20
2022-12-01T13:42:01.441Z,7.30
2022-12-01T13:44:39.756Z,7.20
2022-12-01T13:47:15.250Z,7.20
2022-12-01T13:49:50.198Z,7.20
2022-12-01T13:52:26.779Z,7.20
2022-12-01T13:55:14.263Z,7.20
2022-12-01T13:57:52.674Z,7.20
2022-12-01T14:00:28.950Z,7.20
2022-12-01T14:03:14.533Z,7.20
2022-12-01T14:05:57.331Z,7.20
2022-12-01T14:08:31.861Z,7.10
2022-12-01T14:11:04.490Z,7.10
2022-12-01T14:13:37.142Z,7.10
2022-12-01T14:16:07.196Z,7.20
2022-12-01T14:18:42.629Z,7.30
2022-12-01T14:21:14.877Z,7.30
2022-12-01T14:24:01.962Z,7.30
2022-12-01T14:26:32.303Z,7.20
2022-12-01T14:29:04.918Z,7.20
2022-12-01T14:31:37.990Z,7.20
2022-12-01T14:34:24.283Z,7.10
2022-12-01T14:37:12.889Z,7.10
2022-12-01T14:40:06.632Z,7.00
2022-12-01T14:43:02.921Z,7.10
2022-12-01T14:45:35.569Z,7.10
2022-12-01T14:48:05.862Z,7.10
2022-12-01T14:50:53.611Z,7.10
2022-12-01T14:53:26.176Z,7.10
2022-12-01T14:55:58.883Z,7.10
2022-12-01T14:58:31.705Z,7.00
2022-12-01T15:01:08.531Z,7.00
2022-12-01T15:03:43.912Z,7.00
2022-12-01T15:06:19.308Z,7.00
2022-12-01T15:09:10.397Z,7.00
2022-12-01T15:11:25.789Z,6.90
2022-12-01T15:13:58.161Z,7.00
2022-12-01T15:16:31.024Z,7.00
2022-12-01T15:18:59.876Z,7.00
2022-12-01T15:21:32.028Z,6.90
2022-12-01T15:24:02.350Z,6.90
2022-12-01T15:26:38.153Z,6.90
2022-12-01T15:29:31.556Z,6.80
2022-12-01T15:32:07.287Z,6.90
2022-12-01T15:34:39.915Z,6.80
2022-12-01T15:37:12.546Z,6.80
2022-12-01T15:39:55.684Z,6.80
2022-12-01T15:42:33.233Z,6.80
2022-12-01T15:45:06.655Z,6.80
2022-12-01T15:47:48.280Z,6.80
2022-12-01T15:50:31.258Z,6.80
2022-12-01T15:53:09.822Z,6.70
2022-12-01T15:55:40.443Z,6.70
2022-12-01T15:58:12.552Z,6.70
2022-12-01T16:00:42.294Z,6.60
2022-12-01T16:03:14.515Z,6.50
2022-12-01T16:05:45.789Z,6.50
2022-12-01T16:08:20.639Z,6.60
2022-12-01T16:11:15.985Z,6.50
2022-12-01T16:14:00.481Z,6.50
2022-12-01T16:16:50.386Z,6.40
2022-12-01T16:19:36.139Z,6.50
2022-12-01T16:22:14.706Z,6.40
2022-12-01T16:24:55.747Z,6.40
2022-12-01T16:27:30.974Z,6.50
2022-12-01T16:30:06.560Z,6.40
2022-12-01T16:32:41.033Z,6.40
2022-12-01T16:35:23.460Z,6.30
2022-12-01T16:37:53.343Z,6.40
2022-12-01T16:40:22.909Z,6.40
2022-12-01T16:42:51.614Z,6.40
2022-12-01T16:45:21.570Z,6.40
2022-12-01T16:47:51.584Z,6.40
2022-12-01T16:50:23.105Z,6.40
2022-12-01T16:52:52.764Z,6.30
2022-12-01T16:55:25.566Z,6.30
2022-12-01T16:57:55.863Z,6.40
2022-12-01T17:00:26.008Z,6.30
2022-12-01T17:02:55.770Z,6.40
2022-12-01T17:05:26.102Z,6.30
2022-12-01T17:07:55.910Z,6.30
2022-12-01T17:10:26.041Z,6.30
2022-12-01T17:12:55.702Z,6.30
2022-12-01T17:15:25.837Z,6.40
2022-12-01T17:17:54.718Z,6.30
2022-12-01T17:20:24.351Z,6.30
2022-12-01T17:22:54.115Z,6.30
2022-12-01T17:25:25.323Z,6.30
2022-12-01T17:27:55.058Z,6.30
2022-12-01T17:30:25.254Z,6.30
2022-12-01T17:32:54.114Z,6.30
2022-12-01T17:35:24.022Z,6.30
2022-12-01T17:37:53.940Z,6.30
2022-12-01T17:40:24.133Z,6.30
2022-12-01T17:42:53.600Z,6.30
2022-12-01T17:45:23.118Z,6.30
2022-12-01T17:47:52.864Z,6.30
2022-12-01T17:50:22.765Z,6.30
2022-12-01T17:52:52.338Z,6.30
2022-12-01T17:55:22.015Z,6.30
2022-12-01T17:57:51.916Z,6.40
2022-12-01T18:00:22.819Z,6.30
2022-12-01T18:02:52.519Z,6.30
2022-12-01T18:05:22.277Z,6.30
2022-12-01T18:07:52.532Z,6.30
2022-12-01T18:10:22.687Z,6.20
2022-12-01T18:12:52.382Z,6.20
2022-12-01T18:15:22.119Z,6.20
2022-12-01T18:17:52.686Z,6.20
2022-12-01T18:20:22.252Z,6.20
2022-12-01T18:22:51.754Z,6.20
2022-12-01T18:25:20.421Z,6.20
2022-12-01T18:27:51.352Z,6.20
2022-12-01T18:30:20.945Z,6.20
2022-12-01T18:32:50.384Z,6.20
2022-12-01T18:35:19.954Z,6.20
2022-12-01T18:37:49.547Z,6.20
2022-12-01T18:40:19.119Z,6.20
2022-12-01T18:42:50.377Z,6.20
2022-12-01T18:45:21.437Z,6.10
2022-12-01T18:47:50.959Z,6.10
2022-12-01T18:50:20.377Z,6.20
2022-12-01T18:52:49.805Z,6.10
2022-12-01T18:55:19.379Z,6.10
2022-12-01T18:57:48.797Z,6.10
2022-12-01T19:00:19.366Z,6.10
2022-12-01T19:02:48.781Z,6.10
2022-12-01T19:05:18.285Z,6.10
2022-12-01T19:07:48.161Z,6.10
2022-12-01T19:10:17.988Z,6.10
2022-12-01T19:12:47.489Z,6.10
2022-12-01T19:15:17.032Z,6.10
2022-12-01T19:17:46.523Z,6.00
2022-12-01T19:20:16.024Z,6.10
2022-12-01T19:22:45.481Z,6.00
2022-12-01T19:25:14.978Z,6.10
2022-12-01T19:27:44.484Z,6.10
2022-12-01T19:30:14.234Z,6.00
2022-12-01T19:32:43.943Z,6.10
2022-12-01T19:35:13.452Z,6.00
2022-12-01T19:37:43.012Z,6.10
2022-12-01T19:40:13.547Z,6.00
2022-12-01T19:42:42.561Z,6.00
2022-12-01T19:45:12.447Z,6.10
2022-12-01T19:47:41.880Z,6.00
2022-12-01T19:50:11.721Z,6.00
2022-12-01T19:52:41.742Z,6.00
2022-12-01T19:55:11.957Z,6.00
2022-12-01T19:57:41.392Z,6.00
2022-12-01T20:00:12.309Z,6.00
2022-12-01T20:02:41.185Z,6.00
2022-12-01T20:05:10.869Z,6.00
2022-12-01T20:07:40.428Z,6.00
2022-12-01T20:10:10.768Z,6.00
2022-12-01T20:12:40.361Z,6.00
2022-12-01T20:15:10.736Z,6.10
2022-12-01T20:17:40.171Z,6.00
2022-12-01T20:20:10.780Z,6.00
2022-12-01T20:22:40.289Z,6.00
2022-12-01T20:25:10.181Z,6.00
2022-12-01T20:27:39.749Z,6.00
2022-12-01T20:30:10.539Z,6.00
2022-12-01T20:32:40.043Z,5.90
2022-12-01T20:35:11.394Z,6.00
2022-12-01T20:37:42.044Z,6.00
2022-12-01T20:40:12.368Z,6.00
2022-12-01T20:42:41.806Z,5.90
2022-12-01T20:45:11.293Z,6.00
2022-12-01T20:47:41.109Z,6.00
2022-12-01T20:50:10.918Z,6.00
2022-12-01T20:52:41.396Z,6.00
2022-12-01T20:55:10.975Z,6.00
2022-12-01T20:57:40.403Z,6.00
2022-12-01T21:00:12.215Z,6.00
2022-12-01T21:02:43.731Z,6.00
2022-12-01T21:05:13.318Z,6.00
2022-12-01T21:07:42.840Z,5.90
2022-12-01T21:10:16.993Z,5.90
2022-12-01T21:13:03.795Z,6.00
2022-12-01T21:15:36.371Z,6.00
2022-12-01T21:18:08.601Z,6.00
2022-12-01T21:20:43.085Z,5.90
2022-12-01T21:23:19.903Z,5.90
2022-12-01T21:25:51.398Z,5.90
2022-12-01T21:28:25.903Z,6.00
2022-12-01T21:30:58.499Z,6.00
2022-12-01T21:33:28.722Z,5.90
2022-12-01T21:36:00.384Z,6.00
2022-12-01T21:38:31.514Z,5.90
2022-12-01T21:41:00.184Z,5.90
2022-12-01T21:43:35.227Z,5.90
2022-12-01T21:46:02.980Z,5.90
2022-12-01T21:48:33.137Z,5.90
2022-12-01T21:51:05.212Z,5.90
2022-12-01T21:53:35.397Z,5.90
2022-12-01T21:56:07.009Z,5.90
2022-12-01T21:58:38.152Z,5.80
2022-12-01T22:01:10.775Z,5.80
2022-12-01T22:03:43.240Z,5.80
2022-12-01T22:06:34.924Z,5.80
2022-12-01T22:09:13.827Z,5.80
2022-12-01T22:11:45.992Z,5.90
2022-12-01T22:14:24.549Z,5.90
2022-12-01T22:17:00.611Z,5.90
2022-12-01T22:19:35.110Z,5.90
2022-12-01T22:22:15.020Z,5.80
2022-12-01T22:24:47.101Z,5.70
2022-12-01T22:27:31.976Z,5.70
2022-12-01T22:30:04.486Z,5.80
2022-12-01T22:32:37.418Z,5.80
2022-12-01T22:35:14.635Z,5.80
2022-12-01T22:37:50.082Z,5.80
2022-12-01T22:40:37.674Z,5.80
2022-12-01T22:43:15.968Z,5.80
2022-12-01T22:45:51.007Z,5.80
2022-12-01T22:48:32.442Z,5.80
2022-12-01T22:51:26.703Z,5.80
2022-12-01T22:54:17.184Z,5.80
2022-12-01T22:56:49.599Z,5.80
2022-12-01T22:59:30.526Z,5.80
2022-12-01T23:02:02.545Z,5.80
2022-12-01T23:04:41.117Z,5.80
2022-12-01T23:07:25.500Z,5.80
2022-12-01T23:09:56.559Z,5.90
2022-12-01T23:12:31.695Z,5.90
2022-12-01T23:15:19.132Z,5.80
2022-12-01T23:17:49.229Z,5.80
2022-12-01T23:20:35.547Z,5.80
2022-12-01T23:23:08.110Z,5.80
2022-12-01T23:25:37.620Z,5.90
2022-12-01T23:28:09.878Z,5.90
2022-12-01T23:30:41.852Z,5.80
2022-12-01T23:33:17.098Z,5.80
2022-12-01T23:36:07.522Z,5.80
2022-12-01T23:38:39.804Z,5.80
2022-12-01T23:41:09.982Z,5.80
2022-12-01T23:43:42.532Z,5.80
2022-12-01T23:46:17.129Z,5.90
2022-12-01T23:48:49.689Z,5.90
2022-12-01T23:51:28.038Z,5.90
2022-12-01T23:53:58.709Z,5.90
2022-12-01T23:56:30.891Z,5.90
2022-12-01T23:59:02.424Z,5.90
